Nulato, Alaska
Current Conditions -  °F | °C
As of 12:53 PM on Tuesday 25 Nov 2014 (Local Time) from PAKV Reporting Station
Overcast Overcast  
Wind Chill:   Ceiling: 1800
Heat Index:   Visibility: 10mi
Dew Point:   Wind: 5mph
Humidity: 76%   Direction: 240°WSW
Pressure: 30.3"   Gusts: NA
Location:  64.72°N, 158.13°W
Report Text: PAKV 252153Z AUTO 24004KT 10SM OVC018 M13/M17 A3030 RMK AO1 SLP267 T11331167 FZRANO TSNO
Loading
Personal Weather Stations






























Interactive Weather Map New forecast layout! Learn more

10-Day Weather Forecast

Advertisements
Track Severe Weather on mobile